Time;durP1;ratioP1;P1;durP2;ratioP2;P2;SDS_P1;SDS_P2;PMS_P1;PMS_P2;Temp;Humidity;BMP_temperature;BMP_pressure;BME280_temperature;BME280_humidity;BME280_pressure;Samples;Min_cycle;Max_cycle;Signal;HPM_P1;HPM_P2
2022/04/22 00:05:32;;;;;;;32.45;18.98;;;;;;;;;;4432799;80;28492;-79
2022/04/22 00:11:33;;;;;;;32.60;19.52;;;;;;;;;;4449319;80;28493;-79
2022/04/22 00:17:34;;;;;;;34.85;21.27;;;;;;;;;;4435192;80;28494;-79
2022/04/22 00:23:35;;;;;;;32.48;19.73;;;;;;;;;;4444279;80;28521;-79
2022/04/22 00:29:35;;;;;;;32.25;19.17;;;;;;;;;;4450366;80;28521;-79
2022/04/22 00:35:36;;;;;;;33.60;19.75;;;;;;;;;;4464410;80;28508;-78
2022/04/22 00:41:37;;;;;;;36.45;20.08;;;;;;;;;;4464595;80;28518;-79
2022/04/22 00:47:38;;;;;;;32.17;19.60;;;;;;;;;;4470812;80;28500;-79
2022/04/22 00:53:40;;;;;;;32.95;19.87;;;;;;;;;;4471339;80;28489;-79
2022/04/22 00:59:42;;;;;;;32.45;18.65;;;;;;;;;;4383294;81;28537;-78
2022/04/22 01:12:02;;;;;;;30.43;17.35;;;;;;;;;;4468627;80;28504;-80
2022/04/22 01:18:04;;;;;;;30.20;18.25;;;;;;;;;;4470370;80;28999;-78
2022/04/22 01:24:05;;;;;;;37.30;19.73;;;;;;;;;;4460387;80;28522;-80
2022/04/22 01:30:06;;;;;;;31.97;19.87;;;;;;;;;;4457647;78;28536;-80
2022/04/22 01:36:08;;;;;;;32.13;19.75;;;;;;;;;;4444573;80;28477;-81
2022/04/22 01:42:09;;;;;;;32.35;17.87;;;;;;;;;;4446788;80;28524;-81
2022/04/22 01:48:10;;;;;;;30.95;18.32;;;;;;;;;;4446046;80;28536;-80
2022/04/22 01:54:11;;;;;;;30.48;17.82;;;;;;;;;;4368559;80;28485;-80
2022/04/22 02:00:12;;;;;;;34.80;19.70;;;;;;;;;;4440096;79;28543;-80
2022/04/22 02:06:13;;;;;;;32.80;19.90;;;;;;;;;;4436709;80;28541;-81
2022/04/22 02:12:14;;;;;;;35.70;20.27;;;;;;;;;;4446356;79;28534;-81
2022/04/22 02:18:15;;;;;;;35.85;20.10;;;;;;;;;;4439365;80;28606;-81
2022/04/22 02:24:16;;;;;;;33.83;18.57;;;;;;;;;;4441810;80;28527;-81
2022/04/22 02:30:18;;;;;;;31.80;18.27;;;;;;;;;;4437657;80;28536;-80
2022/04/22 02:36:19;;;;;;;41.23;23.15;;;;;;;;;;4404778;80;28578;-81
2022/04/22 02:48:39;;;;;;;37.25;21.68;;;;;;;;;;4405024;80;28545;-79
2022/04/22 02:54:41;;;;;;;45.40;24.43;;;;;;;;;;4388670;79;28529;-80
2022/04/22 03:00:42;;;;;;;35.05;20.40;;;;;;;;;;4404918;80;28543;-81
2022/04/22 03:06:43;;;;;;;30.17;19.12;;;;;;;;;;4404812;79;28930;-82
2022/04/22 03:12:44;;;;;;;34.53;19.48;;;;;;;;;;4421576;79;28596;-81
2022/04/22 03:18:45;;;;;;;35.00;20.85;;;;;;;;;;4405480;80;28552;-81
2022/04/22 03:24:45;;;;;;;38.30;21.52;;;;;;;;;;4405173;81;28518;-82
2022/04/22 03:30:46;;;;;;;38.88;21.15;;;;;;;;;;4405483;80;28584;-81
2022/04/22 03:36:47;;;;;;;37.08;21.40;;;;;;;;;;4403480;80;28552;-81
2022/04/22 03:42:49;;;;;;;34.30;19.73;;;;;;;;;;4406429;81;28520;-80
2022/04/22 03:48:49;;;;;;;32.60;18.90;;;;;;;;;;4354239;80;28583;-81
2022/04/22 03:54:50;;;;;;;37.75;22.15;;;;;;;;;;4395212;81;28551;-80
2022/04/22 04:00:51;;;;;;;35.92;21.07;;;;;;;;;;4404468;81;28538;-81
2022/04/22 04:06:52;;;;;;;39.70;22.75;;;;;;;;;;4407581;80;28576;-80
2022/04/22 04:25:32;;;;;;;40.35;23.52;;;;;;;;;;4402249;79;28561;-80
2022/04/22 04:31:33;;;;;;;42.48;24.15;;;;;;;;;;4405920;79;28538;-81
2022/04/22 04:37:36;;;;;;;42.98;24.12;;;;;;;;;;4393140;81;28470;-82
2022/04/22 04:43:40;;;;;;;39.13;22.75;;;;;;;;;;4388559;79;28560;-81
2022/04/22 04:49:41;;;;;;;38.38;22.22;;;;;;;;;;4405219;79;28531;-81
2022/04/22 04:55:42;;;;;;;37.08;20.80;;;;;;;;;;4404316;81;28504;-80
2022/04/22 05:01:43;;;;;;;38.45;20.40;;;;;;;;;;4404099;81;28512;-81
2022/04/22 05:07:48;;;;;;;38.38;22.50;;;;;;;;;;4403490;80;28450;-80
2022/04/22 05:13:49;;;;;;;38.38;22.62;;;;;;;;;;4419492;79;28514;-80
2022/04/22 05:19:50;;;;;;;38.28;22.02;;;;;;;;;;4403785;79;28554;-82
2022/04/22 05:25:50;;;;;;;42.17;22.02;;;;;;;;;;4401790;79;28489;-82
2022/04/22 05:38:11;;;;;;;35.20;20.05;;;;;;;;;;4381497;81;28509;-79
2022/04/22 05:44:12;;;;;;;34.50;19.12;;;;;;;;;;4380729;81;28604;-79
2022/04/22 05:50:14;;;;;;;37.88;20.92;;;;;;;;;;4354562;81;28539;-80
2022/04/22 05:56:15;;;;;;;37.88;20.57;;;;;;;;;;4346938;80;28641;-78
2022/04/22 06:02:18;;;;;;;40.78;22.07;;;;;;;;;;4385404;80;28536;-80
2022/04/22 06:14:38;;;;;;;35.15;19.85;;;;;;;;;;4382103;80;28566;-80
2022/04/22 06:20:41;;;;;;;32.08;17.73;;;;;;;;;;4269702;81;28547;-81
2022/04/22 06:26:42;;;;;;;29.92;16.67;;;;;;;;;;4289379;81;28502;-80
2022/04/22 06:32:44;;;;;;;33.33;17.30;;;;;;;;;;4347546;80;28518;-79
2022/04/22 06:38:46;;;;;;;32.13;18.32;;;;;;;;;;4371538;81;28584;-80
2022/04/22 06:51:06;;;;;;;32.90;18.95;;;;;;;;;;4367945;80;28516;-81
2022/04/22 06:57:08;;;;;;;31.73;19.40;;;;;;;;;;4356797;81;28517;-82
2022/04/22 07:03:10;;;;;;;33.92;19.12;;;;;;;;;;4354390;79;28518;-81
2022/04/22 07:09:11;;;;;;;31.25;17.92;;;;;;;;;;4365081;79;28611;-82
2022/04/22 07:15:13;;;;;;;32.95;19.12;;;;;;;;;;4361844;80;28520;-83
2022/04/22 07:21:14;;;;;;;32.38;19.15;;;;;;;;;;4374749;80;28611;-82
2022/04/22 07:27:15;;;;;;;30.62;18.05;;;;;;;;;;4362849;80;28739;-81
2022/04/22 07:33:16;;;;;;;28.55;17.45;;;;;;;;;;4357741;81;28534;-81
2022/04/22 07:39:17;;;;;;;32.33;18.12;;;;;;;;;;4364607;81;28543;-80
2022/04/22 07:51:39;;;;;;;31.05;19.35;;;;;;;;;;4388069;81;28524;-80
2022/04/22 07:57:41;;;;;;;34.73;19.75;;;;;;;;;;4408097;81;28568;-81
2022/04/22 08:03:42;;;;;;;38.13;20.30;;;;;;;;;;4393916;79;28603;-82
2022/04/22 08:09:47;;;;;;;35.48;18.85;;;;;;;;;;4382305;81;28490;-82
2022/04/22 08:15:46;;;;;;;34.13;19.32;;;;;;;;;;4390190;81;28553;-81
2022/04/22 08:21:47;;;;;;;34.85;18.85;;;;;;;;;;4397853;79;28511;-82
2022/04/22 08:27:49;;;;;;;37.03;18.80;;;;;;;;;;4404349;81;28544;-84
2022/04/22 08:33:55;;;;;;;31.97;18.15;;;;;;;;;;4409405;81;28536;-82
2022/04/22 08:39:55;;;;;;;28.17;17.37;;;;;;;;;;4408424;79;28544;-83
2022/04/22 08:45:56;;;;;;;32.42;18.52;;;;;;;;;;4362835;81;28525;-83
2022/04/22 08:52:01;;;;;;;32.55;18.48;;;;;;;;;;4422986;79;28634;-83
2022/04/22 08:58:05;;;;;;;30.50;17.52;;;;;;;;;;4447845;79;28563;-81
2022/04/22 09:04:06;;;;;;;34.38;19.12;;;;;;;;;;4420984;80;28526;-79
2022/04/22 09:10:07;;;;;;;39.18;21.85;;;;;;;;;;4426684;79;28523;-81
2022/04/22 09:16:09;;;;;;;42.15;23.35;;;;;;;;;;4431834;79;28512;-80
2022/04/22 09:22:10;;;;;;;41.33;23.70;;;;;;;;;;4428387;80;28457;-81
2022/04/22 09:28:11;;;;;;;42.55;22.75;;;;;;;;;;4426902;80;28529;-81
2022/04/22 09:34:12;;;;;;;43.78;23.10;;;;;;;;;;4391818;80;28512;-81
2022/04/22 09:46:33;;;;;;;38.75;21.80;;;;;;;;;;4393743;81;28559;-82
2022/04/22 09:52:38;;;;;;;42.05;21.95;;;;;;;;;;4400253;80;28549;-83
2022/04/22 09:58:39;;;;;;;39.70;20.80;;;;;;;;;;4354558;81;28481;-82
2022/04/22 10:04:41;;;;;;;33.23;18.25;;;;;;;;;;4341733;82;28488;-83
2022/04/22 10:10:42;;;;;;;34.95;20.43;;;;;;;;;;4455552;79;28500;-81
2022/04/22 10:16:43;;;;;;;32.05;19.27;;;;;;;;;;4352480;80;28947;-83
2022/04/22 10:22:46;;;;;;;26.45;17.02;;;;;;;;;;4335811;80;28484;-86
2022/04/22 10:28:47;;;;;;;26.70;16.05;;;;;;;;;;4435559;80;28513;-82
2022/04/22 10:34:50;;;;;;;26.35;15.45;;;;;;;;;;4364470;81;28559;-83
2022/04/22 10:40:51;;;;;;;24.35;14.95;;;;;;;;;;4366296;81;28523;-84
2022/04/22 10:53:25;;;;;;;27.82;14.50;;;;;;;;;;4405764;81;28486;-83
2022/04/22 10:59:32;;;;;;;26.33;14.15;;;;;;;;;;4405205;81;28525;-83
2022/04/22 11:05:30;;;;;;;26.70;14.73;;;;;;;;;;4405111;81;28552;-83
2022/04/22 11:11:33;;;;;;;26.52;14.35;;;;;;;;;;4359487;81;28528;-84
2022/04/22 11:17:34;;;;;;;29.98;15.60;;;;;;;;;;4404431;81;28536;-83
2022/04/22 11:23:36;;;;;;;29.65;15.13;;;;;;;;;;4364597;81;28502;-83
2022/04/22 11:29:59;;;;;;;27.10;14.23;;;;;;;;;;4200196;84;28531;-83
2022/04/22 11:36:02;;;;;;;26.25;15.00;;;;;;;;;;4250385;83;28497;-83
2022/04/22 11:42:09;;;;;;;27.77;16.07;;;;;;;;;;4238579;83;28551;-83
2022/04/22 11:48:11;;;;;;;27.90;16.00;;;;;;;;;;4246766;83;28495;-85
2022/04/22 11:54:13;;;;;;;26.20;14.30;;;;;;;;;;4236153;83;28530;-81
2022/04/22 12:06:37;;;;;;;22.62;12.50;;;;;;;;;;4245652;83;28518;-82
2022/04/22 12:12:51;;;;;;;22.07;12.75;;;;;;;;;;4257500;83;28507;-83
2022/04/22 12:18:54;;;;;;;20.05;10.90;;;;;;;;;;4254869;83;28504;-82
2022/04/22 12:25:14;;;;;;;20.75;11.22;;;;;;;;;;4238880;83;28540;-81
2022/04/22 12:31:17;;;;;;;18.85;11.05;;;;;;;;;;4247407;83;28517;-82
2022/04/22 12:37:18;;;;;;;15.70;9.90;;;;;;;;;;4238198;83;28647;-81
2022/04/22 12:43:31;;;;;;;14.03;8.40;;;;;;;;;;4249979;84;28615;-82
2022/04/22 12:56:02;;;;;;;20.52;10.25;;;;;;;;;;4255536;83;28473;-83
2022/04/22 13:02:08;;;;;;;17.55;10.13;;;;;;;;;;4261143;83;28524;-83
2022/04/22 13:08:09;;;;;;;20.02;12.43;;;;;;;;;;4260244;83;28519;-86
2022/04/22 13:14:12;;;;;;;26.33;15.30;;;;;;;;;;4259322;83;28501;-86
2022/04/22 13:20:14;;;;;;;28.27;15.95;;;;;;;;;;4251390;83;28516;-83
2022/04/22 13:26:25;;;;;;;30.52;16.82;;;;;;;;;;4257805;82;28564;-84
2022/04/22 13:32:28;;;;;;;24.80;13.62;;;;;;;;;;4273460;83;28574;-83
2022/04/22 13:38:30;;;;;;;23.77;13.25;;;;;;;;;;4220075;84;28506;-84
2022/04/22 13:57:12;;;;;;;29.77;14.78;;;;;;;;;;4195242;84;28525;-82
2022/04/22 14:03:13;;;;;;;26.17;14.10;;;;;;;;;;4223588;83;28525;-84
2022/04/22 14:09:14;;;;;;;22.25;12.90;;;;;;;;;;4214245;83;28620;-82
2022/04/22 14:15:17;;;;;;;23.42;13.15;;;;;;;;;;4197506;83;28553;-82
2022/04/22 14:21:25;;;;;;;24.82;13.88;;;;;;;;;;4249287;82;28524;-83
2022/04/22 14:27:22;;;;;;;25.37;14.25;;;;;;;;;;4250503;82;28539;-81
2022/04/22 14:33:24;;;;;;;24.30;13.80;;;;;;;;;;4248300;82;28614;-82
2022/04/22 14:39:25;;;;;;;23.32;13.50;;;;;;;;;;4242501;82;28548;-82
2022/04/22 14:45:28;;;;;;;19.75;10.32;;;;;;;;;;4256745;82;28536;-81
2022/04/22 14:51:31;;;;;;;14.15;7.72;;;;;;;;;;4250793;82;28507;-82
2022/04/22 14:57:32;;;;;;;15.00;7.60;;;;;;;;;;4221823;82;28588;-80
2022/04/22 15:03:33;;;;;;;18.50;9.08;;;;;;;;;;4254646;82;28494;-81
2022/04/22 15:09:34;;;;;;;17.45;9.15;;;;;;;;;;4235278;82;28565;-80
2022/04/22 15:15:37;;;;;;;17.77;8.90;;;;;;;;;;4266771;83;28539;-81
2022/04/22 15:27:58;;;;;;;17.92;9.18;;;;;;;;;;4278053;81;28557;-85
2022/04/22 15:33:59;;;;;;;14.18;8.98;;;;;;;;;;4299820;83;28465;-84
2022/04/22 15:40:00;;;;;;;16.15;8.53;;;;;;;;;;4300676;81;28598;-87
2022/04/22 15:46:01;;;;;;;16.95;9.20;;;;;;;;;;4299050;81;28510;-83
2022/04/22 15:52:02;;;;;;;11.12;6.42;;;;;;;;;;4295120;81;28467;-84
2022/04/22 15:58:07;;;;;;;7.95;4.28;;;;;;;;;;4290671;81;28524;-84
2022/04/22 16:04:09;;;;;;;6.92;3.58;;;;;;;;;;4293926;81;28505;-85
2022/04/22 16:10:10;;;;;;;4.95;2.65;;;;;;;;;;4291840;81;28541;-84
2022/04/22 16:16:16;;;;;;;6.12;2.92;;;;;;;;;;4305952;82;28453;-85
2022/04/22 16:22:19;;;;;;;5.17;2.93;;;;;;;;;;4224749;83;28494;-83
2022/04/22 16:28:20;;;;;;;8.15;5.28;;;;;;;;;;4223812;83;28579;-86
2022/04/22 16:34:21;;;;;;;10.15;5.60;;;;;;;;;;4219002;84;28542;-87
2022/04/22 16:40:22;;;;;;;11.55;6.35;;;;;;;;;;4212700;84;28502;-87
2022/04/22 16:46:23;;;;;;;10.88;6.58;;;;;;;;;;4306395;83;28516;-87
2022/04/22 16:52:25;;;;;;;11.22;6.30;;;;;;;;;;4306944;83;28518;-86
2022/04/22 16:58:30;;;;;;;10.25;5.53;;;;;;;;;;4306773;83;28518;-85
2022/04/22 17:04:28;;;;;;;9.48;5.58;;;;;;;;;;4306991;82;28501;-86
2022/04/22 17:10:29;;;;;;;12.33;7.28;;;;;;;;;;4305030;82;28493;-85
2022/04/22 17:22:49;;;;;;;13.08;7.90;;;;;;;;;;4222036;83;28499;-87
2022/04/22 17:28:50;;;;;;;12.07;7.35;;;;;;;;;;4300346;82;28531;-86
2022/04/22 17:34:51;;;;;;;11.00;7.12;;;;;;;;;;4296415;83;28468;-87
2022/04/22 17:40:53;;;;;;;12.80;7.45;;;;;;;;;;4278895;83;28578;-86
2022/04/22 17:46:53;;;;;;;12.23;7.12;;;;;;;;;;4216094;84;28509;-86
2022/04/22 17:52:56;;;;;;;14.65;7.83;;;;;;;;;;4309074;83;29539;-87
2022/04/22 17:58:57;;;;;;;11.63;7.15;;;;;;;;;;4287696;83;28546;-87
2022/04/22 18:04:58;;;;;;;11.85;6.80;;;;;;;;;;4326360;81;28540;-85
2022/04/22 18:11:00;;;;;;;12.47;7.45;;;;;;;;;;4308243;82;28526;-87
2022/04/22 18:17:01;;;;;;;12.85;7.87;;;;;;;;;;4291814;81;28615;-84
2022/04/22 18:23:02;;;;;;;14.50;7.92;;;;;;;;;;4290340;83;28518;-85
2022/04/22 18:29:03;;;;;;;16.00;8.48;;;;;;;;;;4280651;81;28491;-86
2022/04/22 18:35:06;;;;;;;9.53;6.22;;;;;;;;;;4245463;83;28552;-82
2022/04/22 18:41:09;;;;;;;11.73;7.47;;;;;;;;;;4265232;83;28481;-85
2022/04/22 18:47:15;;;;;;;11.65;6.97;;;;;;;;;;4293953;83;28515;-85
2022/04/22 18:53:17;;;;;;;10.18;6.35;;;;;;;;;;4298058;81;28676;-85
2022/04/22 18:59:18;;;;;;;11.95;7.03;;;;;;;;;;4299766;83;28538;-85
2022/04/22 19:05:19;;;;;;;9.88;6.53;;;;;;;;;;4294080;83;28461;-84
2022/04/22 19:11:21;;;;;;;12.85;7.70;;;;;;;;;;4288327;83;28471;-86
2022/04/22 19:17:22;;;;;;;11.88;7.42;;;;;;;;;;4294949;81;28470;-87
2022/04/22 19:23:22;;;;;;;12.75;7.47;;;;;;;;;;4289577;81;28490;-84
2022/04/22 19:29:23;;;;;;;12.78;7.78;;;;;;;;;;4300276;81;28554;-87
2022/04/22 19:35:25;;;;;;;12.00;6.92;;;;;;;;;;4308291;81;28517;-90
2022/04/22 19:41:26;;;;;;;13.40;7.33;;;;;;;;;;4290187;81;28528;-86
2022/04/22 19:47:27;;;;;;;13.90;7.83;;;;;;;;;;4309913;81;28522;-87
2022/04/22 19:53:28;;;;;;;11.18;7.12;;;;;;;;;;4288528;81;28631;-88
2022/04/22 19:59:30;;;;;;;12.50;7.62;;;;;;;;;;4296918;81;28540;-86
2022/04/22 20:05:32;;;;;;;11.83;7.67;;;;;;;;;;4306481;83;28545;-87
2022/04/22 20:11:35;;;;;;;11.33;6.62;;;;;;;;;;4305359;83;28575;-87
2022/04/22 20:17:36;;;;;;;13.55;8.35;;;;;;;;;;4306142;83;28520;-87
2022/04/22 20:23:37;;;;;;;14.23;7.72;;;;;;;;;;4227418;84;28530;-85
2022/04/22 20:29:38;;;;;;;12.45;7.05;;;;;;;;;;4224155;83;28493;-85
2022/04/22 20:41:59;;;;;;;15.08;8.03;;;;;;;;;;4212493;84;28544;-83
2022/04/22 20:48:02;;;;;;;15.35;9.03;;;;;;;;;;4168276;84;28541;-86
2022/04/22 20:54:03;;;;;;;15.32;8.70;;;;;;;;;;4296060;83;28459;-86
2022/04/22 21:00:04;;;;;;;18.15;10.53;;;;;;;;;;4291827;83;28543;-86
2022/04/22 21:06:07;;;;;;;14.80;9.38;;;;;;;;;;4277316;82;28633;-85
2022/04/22 21:12:08;;;;;;;14.78;8.55;;;;;;;;;;4309803;82;28537;-85
2022/04/22 21:18:09;;;;;;;14.50;8.58;;;;;;;;;;4290395;83;28526;-84
2022/04/22 21:24:10;;;;;;;14.85;8.98;;;;;;;;;;4294402;83;28488;-84
2022/04/22 21:30:12;;;;;;;15.10;8.90;;;;;;;;;;4291981;81;28542;-84
2022/04/22 21:36:13;;;;;;;14.45;8.58;;;;;;;;;;4294326;83;28519;-84
2022/04/22 21:42:16;;;;;;;11.63;7.40;;;;;;;;;;4294043;83;28602;-84
2022/04/22 21:48:17;;;;;;;16.70;10.10;;;;;;;;;;4281608;83;28540;-85
2022/04/22 21:54:18;;;;;;;15.48;9.53;;;;;;;;;;4294129;83;28515;-83
2022/04/22 22:00:23;;;;;;;14.07;8.80;;;;;;;;;;4289324;83;28488;-84
2022/04/22 22:06:25;;;;;;;18.83;10.10;;;;;;;;;;4294166;83;28477;-86
2022/04/22 22:12:26;;;;;;;16.17;9.70;;;;;;;;;;4305354;82;28576;-84
2022/04/22 22:18:26;;;;;;;13.68;8.73;;;;;;;;;;4254429;83;28503;-84
2022/04/22 22:24:27;;;;;;;15.10;9.08;;;;;;;;;;4294582;83;28539;-84
2022/04/22 22:30:28;;;;;;;15.40;9.50;;;;;;;;;;4293802;83;28520;-85
2022/04/22 22:36:30;;;;;;;18.75;8.88;;;;;;;;;;4293850;83;28539;-84
2022/04/22 22:42:31;;;;;;;17.55;9.83;;;;;;;;;;4274519;83;28516;-85
2022/04/22 22:48:32;;;;;;;14.90;7.85;;;;;;;;;;4268912;83;28581;-84
2022/04/22 22:54:33;;;;;;;14.58;8.55;;;;;;;;;;4293824;82;28542;-84
2022/04/22 23:00:34;;;;;;;14.05;8.28;;;;;;;;;;4286430;83;28522;-83
2022/04/22 23:06:35;;;;;;;12.58;7.60;;;;;;;;;;4269872;83;28506;-84
2022/04/22 23:12:35;;;;;;;15.13;9.13;;;;;;;;;;4307150;82;28503;-85
2022/04/22 23:18:36;;;;;;;13.80;8.55;;;;;;;;;;4293662;83;28537;-85
2022/04/22 23:24:38;;;;;;;12.70;7.75;;;;;;;;;;4293520;83;28514;-83
2022/04/22 23:30:39;;;;;;;15.98;9.03;;;;;;;;;;4274195;83;28562;-83
2022/04/22 23:36:42;;;;;;;15.23;8.98;;;;;;;;;;4258731;83;28489;-83
2022/04/22 23:42:43;;;;;;;18.23;10.40;;;;;;;;;;4221934;84;28564;-84
2022/04/22 23:48:44;;;;;;;17.67;10.20;;;;;;;;;;4199857;84;28516;-86
2022/04/22 23:54:45;;;;;;;17.85;11.55;;;;;;;;;;4240808;83;28514;-86
